createdAt,value
2019-04-01T00:00:00.829Z,69.6
2019-04-01T00:01:01.187Z,69.7
2019-04-01T00:02:01.093Z,69.7
2019-04-01T00:03:01.052Z,69.9
2019-04-01T00:04:00.941Z,70.1
2019-04-01T00:05:00.995Z,70.1
2019-04-01T00:06:00.909Z,70.3
2019-04-01T00:07:00.802Z,70.6
2019-04-01T00:08:00.685Z,70.9
2019-04-01T00:09:00.726Z,70.4
2019-04-01T00:10:00.777Z,70.1
2019-04-01T00:11:01.161Z,70.1
2019-04-01T00:31:02.972Z,66.5
2019-04-01T00:32:02.871Z,67.8
2019-04-01T00:33:02.779Z,67.3
2019-04-01T00:34:02.761Z,67.5
2019-04-01T00:35:02.659Z,67.8
2019-04-01T00:36:02.598Z,68
2019-04-01T00:37:02.532Z,68.1
2019-04-01T00:38:02.437Z,68.4
2019-04-01T00:39:02.313Z,68.3
2019-04-01T00:40:02.213Z,68.5
2019-04-01T00:41:02.561Z,68.5
2019-04-01T00:42:02.604Z,68.6
2019-04-01T00:43:02.492Z,68.7
2019-04-01T00:44:02.402Z,68.8
2019-04-01T00:45:02.297Z,68.7
2019-04-01T00:46:02.201Z,68.7
2019-04-01T00:47:02.175Z,69.2
2019-04-01T00:48:02.088Z,69.2
2019-04-01T00:49:01.997Z,69.5
2019-04-01T00:50:01.924Z,69.2
2019-04-01T00:51:02.257Z,69.4
2019-04-01T00:52:02.159Z,69.4
2019-04-01T00:53:02.075Z,69.6
2019-04-01T00:54:01.955Z,70.5
2019-04-01T00:55:01.868Z,69.9
2019-04-01T00:56:01.758Z,70
2019-04-01T00:57:01.667Z,70.1
2019-04-01T00:58:01.578Z,70.2
2019-04-01T00:59:01.447Z,70.4
2019-04-01T01:00:01.352Z,70.1
2019-04-01T01:01:04.351Z,70.1
2019-04-01T01:02:04.231Z,70.4
2019-04-01T01:03:04.135Z,70.5
2019-04-01T01:04:04.122Z,70.7
2019-04-01T01:05:04.029Z,70.6
2019-04-01T01:06:03.901Z,71.1
2019-04-01T01:07:03.787Z,71.4
2019-04-01T01:08:03.811Z,71.4
2019-04-01T01:09:03.699Z,71.4
2019-04-01T01:10:03.600Z,71.5
2019-04-01T01:11:03.921Z,71
2019-04-01T01:12:03.799Z,71.8
2019-04-01T01:13:03.714Z,71.8
2019-04-01T01:14:03.631Z,71.9
2019-04-01T01:15:03.524Z,71.8
2019-04-01T01:16:03.419Z,71.9
2019-04-01T01:17:03.312Z,72
2019-04-01T01:18:03.210Z,72.2
2019-04-01T01:19:03.201Z,72.5
2019-04-01T01:20:03.115Z,72.7
2019-04-01T01:21:03.423Z,72.1
2019-04-01T01:22:03.324Z,72.9
2019-04-01T01:23:03.219Z,72.7
2019-04-01T01:24:03.183Z,72.5
2019-04-01T01:25:03.094Z,72.3
2019-04-01T01:26:03.012Z,72.6
2019-04-01T01:27:02.940Z,72.6
2019-04-01T01:28:02.850Z,73
2019-04-01T01:29:02.757Z,73.1
2019-04-01T01:30:02.657Z,73
2019-04-01T01:31:02.972Z,72.6
2019-04-01T01:50:59.264Z,68.2
2019-04-01T01:51:59.138Z,69
2019-04-01T01:52:59.063Z,70.4
2019-04-01T01:53:58.958Z,70.1
2019-04-01T01:54:58.886Z,70.5
2019-04-01T01:55:58.812Z,70.6
2019-04-01T01:56:58.684Z,70.7
2019-04-01T01:57:58.571Z,70.7
2019-04-01T01:58:58.479Z,71.1
2019-04-01T01:59:58.390Z,71.3
2019-04-01T02:00:58.705Z,71.7
2019-04-01T02:01:58.613Z,72
2019-04-01T02:02:58.524Z,72
2019-04-01T02:03:58.534Z,72
2019-04-01T02:04:58.436Z,72.1
2019-04-01T02:05:58.352Z,72.1
2019-04-01T02:06:58.246Z,72.3
2019-04-01T02:07:58.152Z,72.3
2019-04-01T02:08:58.090Z,72.6
2019-04-01T02:09:57.977Z,72.7
2019-04-01T02:10:58.314Z,72
2019-04-01T02:20:56.387Z,69.6
2019-04-01T02:21:56.322Z,70.1
2019-04-01T02:22:56.242Z,70.4
2019-04-01T02:23:56.132Z,70.6
2019-04-01T02:24:56.142Z,70.9
2019-04-01T02:25:56.158Z,71.1
2019-04-01T02:26:56.045Z,71.3
2019-04-01T02:27:55.952Z,71.4
2019-04-01T02:28:55.834Z,71.6
2019-04-01T02:29:55.726Z,71.7
2019-04-01T02:30:56.070Z,72.2
2019-04-01T02:31:56.154Z,72.6
2019-04-01T02:32:56.077Z,72.7
2019-04-01T02:33:55.993Z,72.9
2019-04-01T02:34:55.946Z,73
2019-04-01T02:35:55.863Z,73.3
2019-04-01T02:36:55.749Z,73
2019-04-01T02:37:55.690Z,72.8
2019-04-01T02:38:55.591Z,72.6
2019-04-01T02:39:55.497Z,72.9
2019-04-01T02:40:55.816Z,72.6
2019-04-01T02:41:55.722Z,72.9
2019-04-01T02:42:55.654Z,73.1
2019-04-01T02:43:55.573Z,73.2
2019-04-01T02:44:55.481Z,73.2
2019-04-01T02:45:55.374Z,73.2
2019-04-01T02:46:55.292Z,73.4
2019-04-01T02:47:55.199Z,73.8
2019-04-01T02:48:55.131Z,74
2019-04-01T02:49:55.195Z,73.9
2019-04-01T02:50:55.716Z,73.9
2019-04-01T02:51:55.628Z,74
2019-04-01T02:52:55.528Z,74
2019-04-01T02:53:55.461Z,73.8
2019-04-01T02:54:55.370Z,73.8
2019-04-01T02:55:55.300Z,73.6
2019-04-01T02:56:55.280Z,73.6
2019-04-01T02:57:55.216Z,73.4
2019-04-01T02:58:55.185Z,73.2
2019-04-01T02:59:55.206Z,73.5
2019-04-01T03:00:55.562Z,73.3
2019-04-01T03:30:50.023Z,70.5
2019-04-01T03:31:49.975Z,71.3
2019-04-01T03:32:49.925Z,71.9
2019-04-01T03:33:49.916Z,72.4
2019-04-01T03:34:49.966Z,73.1
2019-04-01T03:35:50.026Z,73.7
2019-04-01T03:36:49.927Z,74.1
2019-04-01T03:37:49.817Z,74.2
2019-04-01T03:38:49.743Z,74.7
2019-04-01T03:39:49.658Z,74.9
2019-04-01T03:40:50.077Z,74.7
2019-04-01T03:41:50.026Z,74.7
2019-04-01T03:42:49.926Z,75
2019-04-01T03:43:49.875Z,75.2
2019-04-01T03:44:55.592Z,75.4
2019-04-01T03:45:55.563Z,75.4
2019-04-01T03:46:55.508Z,76.3
2019-04-01T03:47:55.419Z,77.2
2019-04-01T03:48:55.315Z,77.2
2019-04-01T03:49:55.240Z,77.3
2019-04-01T03:50:55.561Z,77.2
2019-04-01T03:51:55.499Z,77.1
2019-04-01T03:52:55.435Z,77.2
2019-04-01T03:53:55.377Z,76.7
2019-04-01T03:54:55.271Z,77.3
2019-04-01T03:55:55.190Z,76.7
2019-04-01T03:56:55.108Z,76.9
2019-04-01T03:57:55.021Z,76.3
2019-04-01T03:58:54.964Z,76.3
2019-04-01T03:59:54.894Z,76.3
2019-04-01T04:00:55.353Z,75.9
2019-04-01T04:01:55.288Z,76.7
2019-04-01T04:02:55.270Z,76.7
2019-04-01T04:03:55.183Z,76.7
2019-04-01T04:04:55.101Z,76.3
2019-04-01T04:05:55.044Z,76
2019-04-01T04:06:54.977Z,76
2019-04-01T04:07:54.900Z,76.3
2019-04-01T04:08:54.799Z,76
2019-04-01T04:09:54.703Z,76
2019-04-01T04:10:55.042Z,76.4
2019-04-01T04:11:54.995Z,76
2019-04-01T04:12:54.934Z,76
2019-04-01T04:13:54.866Z,76.4
2019-04-01T04:14:54.807Z,76.3
2019-04-01T04:15:54.734Z,76.4
2019-04-01T04:16:54.634Z,76.7
2019-04-01T04:17:54.746Z,76.7
2019-04-01T04:18:54.658Z,76.8
2019-04-01T04:19:54.567Z,76.8
2019-04-01T04:20:54.911Z,76.4
2019-04-01T04:21:54.880Z,77
2019-04-01T04:22:54.825Z,77
2019-04-01T04:23:54.790Z,77.3
2019-04-01T04:24:54.696Z,76.9
2019-04-01T04:25:54.616Z,77.3
2019-04-01T04:26:54.539Z,77
2019-04-01T04:27:54.478Z,77.1
2019-04-01T04:28:54.385Z,77.2
2019-04-01T04:29:54.316Z,77.4
2019-04-01T04:30:54.679Z,76.9
2019-04-01T04:40:57.255Z,74.1
2019-04-01T04:41:57.182Z,74.7
2019-04-01T04:42:57.104Z,74.9
2019-04-01T04:43:56.989Z,75
2019-04-01T04:44:56.910Z,74.8
2019-04-01T04:45:56.774Z,75.1
2019-04-01T04:46:58.955Z,75.8
2019-04-01T04:47:58.838Z,75.9
2019-04-01T04:48:58.742Z,76.4
2019-04-01T04:49:58.654Z,76.3
2019-04-01T04:50:58.980Z,76.4
2019-04-01T04:51:58.894Z,76.2
2019-04-01T04:52:58.825Z,76.1
2019-04-01T04:53:58.724Z,76.3
2019-04-01T04:54:58.641Z,76.7
2019-04-01T04:55:58.537Z,76.9
2019-04-01T04:56:58.465Z,76.9
2019-04-01T04:57:58.350Z,77.6
2019-04-01T04:58:58.236Z,77.4
2019-04-01T04:59:58.129Z,77.2
2019-04-01T05:00:58.477Z,77.4
2019-04-01T05:01:58.382Z,77.1
2019-04-01T05:02:58.265Z,77.1
2019-04-01T05:03:58.163Z,77
2019-04-01T05:04:58.064Z,76.7
2019-04-01T05:05:57.968Z,76.6
2019-04-01T05:06:58.039Z,76.9
2019-04-01T05:07:57.962Z,77.3
2019-04-01T05:08:57.852Z,77.3
2019-04-01T05:09:57.734Z,77.5
2019-04-01T05:10:58.066Z,77.6
2019-04-01T05:11:57.963Z,77.8
2019-04-01T05:12:57.846Z,78.1
2019-04-01T05:13:57.739Z,78.4
2019-04-01T05:14:57.644Z,78.4
2019-04-01T05:15:57.532Z,78.7
2019-04-01T05:16:57.528Z,78.7
2019-04-01T05:17:57.418Z,78.7
2019-04-01T05:18:57.324Z,78.7
2019-04-01T05:19:57.233Z,78.5
2019-04-01T05:20:57.552Z,78.6
2019-04-01T05:21:57.510Z,78.7
2019-04-01T05:22:57.400Z,78.8
2019-04-01T05:23:57.310Z,78.7
2019-04-01T05:24:57.198Z,78.7
2019-04-01T05:25:57.190Z,78.7
2019-04-01T05:26:59.524Z,78.4
2019-04-01T05:27:59.426Z,78.3
2019-04-01T05:28:59.314Z,78.4
2019-04-01T05:29:59.238Z,78.4
2019-04-01T05:30:59.564Z,78.3
2019-04-01T05:31:59.481Z,78.3
2019-04-01T05:32:59.374Z,78.8
2019-04-01T05:33:59.243Z,78.8
2019-04-01T05:34:59.114Z,78.5
2019-04-01T05:35:59.000Z,78.8
2019-04-01T05:36:58.917Z,78.8
2019-04-01T05:37:58.808Z,78.9
2019-04-01T05:38:58.690Z,79.1
2019-04-01T05:39:58.581Z,79.2
2019-04-01T05:40:58.890Z,79.3
2019-04-01T05:41:58.809Z,79.5
2019-04-01T05:42:58.740Z,79.8
2019-04-01T05:44:02.601Z,80.2
2019-04-01T05:45:02.638Z,80.1
2019-04-01T05:46:02.520Z,80.2
2019-04-01T05:47:02.472Z,80.3
2019-04-01T05:48:02.358Z,80.3
2019-04-01T05:49:02.322Z,80.5
2019-04-01T05:50:02.232Z,80.4
2019-04-01T05:51:02.554Z,80.2
2019-04-01T05:52:02.456Z,80.3
2019-04-01T05:53:02.360Z,80.4
2019-04-01T05:54:02.260Z,80.7
2019-04-01T05:55:09.168Z,80.9
2019-04-01T05:56:09.184Z,80.7
2019-04-01T05:57:09.155Z,81
2019-04-01T05:58:09.070Z,80.9
2019-04-01T05:59:08.960Z,81
2019-04-01T06:00:08.824Z,80.9
2019-04-01T06:01:09.164Z,81
2019-04-01T06:02:09.079Z,81
2019-04-01T06:03:08.967Z,81.1
2019-04-01T06:04:08.864Z,81.3
2019-04-01T06:05:08.743Z,81.4
2019-04-01T06:06:08.654Z,81.3
2019-04-01T06:07:08.537Z,81.1
2019-04-01T06:08:08.470Z,81.2
2019-04-01T06:09:08.411Z,81.4
2019-04-01T06:10:08.286Z,81.3
2019-04-01T06:11:08.636Z,80.7
2019-04-01T06:31:04.863Z,69.4
2019-04-01T06:32:04.753Z,69.8
2019-04-01T06:33:04.646Z,69.6
2019-04-01T06:34:04.541Z,69.1
2019-04-01T06:35:04.434Z,68.6
2019-04-01T06:36:04.312Z,67.4
2019-04-01T06:37:04.246Z,66.8
2019-04-01T06:38:04.134Z,66.2
2019-04-01T06:39:04.038Z,65.8
2019-04-01T06:40:03.952Z,65.4
2019-04-01T06:41:04.240Z,64.8
2019-04-01T06:42:07.904Z,64.9
2019-04-01T06:43:07.780Z,64.3
2019-04-01T06:44:07.700Z,64.2
2019-04-01T06:45:07.634Z,63.9
2019-04-01T06:46:07.538Z,63.5
2019-04-01T06:47:07.421Z,62.9
2019-04-01T06:48:07.301Z,63
2019-04-01T06:49:07.195Z,62.9
2019-04-01T06:50:07.235Z,62.7
2019-04-01T06:51:07.571Z,62.5
2019-04-01T06:52:07.455Z,62.7
2019-04-01T06:53:07.336Z,62.6
2019-04-01T06:54:07.261Z,62.3
2019-04-01T06:55:07.167Z,61.4
2019-04-01T06:56:07.100Z,61
2019-04-01T06:57:06.990Z,60.9
2019-04-01T06:58:06.896Z,60.8
2019-04-01T06:59:06.800Z,60.5
2019-04-01T07:00:06.707Z,60.8
2019-04-01T07:01:07.029Z,59.8
2019-04-01T07:02:06.911Z,59.5
2019-04-01T07:03:06.788Z,59.7
2019-04-01T07:04:06.695Z,60
2019-04-01T07:05:06.595Z,59.7
2019-04-01T07:06:06.500Z,59.2
2019-04-01T07:07:20.082Z,59.2
2019-04-01T07:08:20.010Z,59.1
2019-04-01T07:09:19.927Z,58.4
2019-04-01T07:10:19.826Z,58.5
2019-04-01T07:11:20.383Z,57.7
2019-04-01T07:12:20.357Z,58.1
2019-04-01T07:13:20.247Z,57.9
2019-04-01T07:14:20.135Z,57.8
2019-04-01T07:15:20.017Z,57.8
2019-04-01T07:16:19.916Z,58.1
2019-04-01T07:17:19.820Z,58.2
2019-04-01T07:18:19.731Z,57.1
2019-04-01T07:19:19.618Z,56.8
2019-04-01T07:20:19.534Z,56.8
2019-04-01T07:21:19.849Z,56.7
2019-04-01T07:22:19.790Z,56.5
2019-04-01T07:23:19.746Z,56.4
2019-04-01T07:24:19.703Z,56
2019-04-01T07:25:19.597Z,56.3
2019-04-01T07:26:19.481Z,56.2
2019-04-01T07:27:19.383Z,56.2
2019-04-01T07:28:19.295Z,56.4
2019-04-01T07:29:19.184Z,56.2
2019-04-01T07:30:19.060Z,55.9
2019-04-01T07:31:21.581Z,55.6
2019-04-01T07:32:21.463Z,55.8
2019-04-01T07:33:21.393Z,54.4
2019-04-01T07:34:21.306Z,54.9
2019-04-01T07:35:21.200Z,54.7
2019-04-01T07:36:21.096Z,54.8
2019-04-01T07:37:20.988Z,54.6
2019-04-01T07:38:20.893Z,54.4
2019-04-01T07:39:20.782Z,54.6
2019-04-01T07:40:20.679Z,53.7
2019-04-01T07:41:21.027Z,54
2019-04-01T07:42:20.911Z,54.5
2019-04-01T07:43:20.837Z,54.6
2019-04-01T07:44:20.725Z,54
2019-04-01T07:45:20.616Z,54.2
2019-04-01T07:46:20.598Z,54
2019-04-01T07:47:20.523Z,52.9
2019-04-01T07:48:20.619Z,53.1
2019-04-01T07:49:20.623Z,52.2
2019-04-01T07:50:21.043Z,53
2019-04-01T07:51:21.599Z,53.8
2019-04-01T07:52:21.573Z,54
2019-04-01T07:53:21.459Z,53.7
2019-04-01T07:54:21.373Z,52.4
2019-04-01T07:55:21.279Z,52.5
2019-04-01T07:56:21.191Z,52.3
2019-04-01T07:57:21.092Z,53.7
2019-04-01T07:58:21.035Z,53.7
2019-04-01T07:59:20.948Z,53.7
2019-04-01T08:00:20.849Z,53.2
2019-04-01T08:01:21.189Z,54
2019-04-01T08:02:21.099Z,53.9
2019-04-01T08:03:21.025Z,53.4
2019-04-01T08:04:20.943Z,53.1
2019-04-01T08:05:20.830Z,51.3
2019-04-01T08:06:20.726Z,50.9
2019-04-01T08:07:20.625Z,51.4
2019-04-01T08:08:20.525Z,51.9
2019-04-01T08:09:20.448Z,52.7
2019-04-01T08:10:20.372Z,50.9
2019-04-01T08:11:20.719Z,51.6
2019-04-01T08:12:20.623Z,51.9
2019-04-01T08:13:20.530Z,52.4
2019-04-01T08:14:20.448Z,52.3
2019-04-01T08:15:22.309Z,52.6
2019-04-01T08:16:22.213Z,52.2
2019-04-01T08:17:22.125Z,52.4
2019-04-01T08:18:22.014Z,51.9
2019-04-01T08:19:21.925Z,52.2
2019-04-01T08:20:21.839Z,52.2
2019-04-01T08:21:22.224Z,52.5
2019-04-01T08:22:22.108Z,52.6
2019-04-01T08:23:22.007Z,51.6
2019-04-01T08:24:21.897Z,52
2019-04-01T08:25:21.799Z,52
2019-04-01T08:26:21.715Z,51.6
2019-04-01T08:27:21.707Z,51.9
2019-04-01T08:28:24.545Z,51.6
2019-04-01T08:29:31.437Z,51.4
2019-04-01T08:30:31.337Z,51.9
2019-04-01T08:31:31.660Z,51.9
2019-04-01T08:32:31.564Z,51.8
2019-04-01T08:33:31.549Z,52
2019-04-01T08:34:31.441Z,52.5
2019-04-01T08:35:31.381Z,52.2
2019-04-01T08:36:31.280Z,52
2019-04-01T08:37:31.160Z,52.6
2019-04-01T08:38:31.070Z,52.2
2019-04-01T08:39:30.966Z,51.2
2019-04-01T08:40:30.870Z,51.6
2019-04-01T08:41:31.229Z,51.6
2019-04-01T08:42:31.131Z,51.7
2019-04-01T08:43:31.030Z,52
2019-04-01T08:44:30.946Z,52.8
2019-04-01T08:45:30.836Z,53.1
2019-04-01T08:46:30.775Z,53.4
2019-04-01T08:47:30.667Z,53.2
2019-04-01T08:48:30.562Z,52.9
2019-04-01T08:49:30.574Z,53.1
2019-04-01T08:50:30.562Z,53.5
2019-04-01T08:51:30.933Z,53
2019-04-01T08:52:30.820Z,53.1
2019-04-01T08:53:30.722Z,53.7
2019-04-01T08:54:30.599Z,54
2019-04-01T08:55:30.502Z,54
2019-04-01T08:56:30.408Z,53.9
2019-04-01T08:57:30.441Z,53.5
2019-04-01T08:58:30.388Z,53.3
2019-04-01T08:59:30.354Z,53.3
2019-04-01T09:00:30.314Z,53.8
2019-04-01T09:01:36.274Z,53.8
2019-04-01T09:02:36.185Z,54.3
2019-04-01T09:03:36.056Z,54.4
2019-04-01T09:04:35.942Z,54.8
2019-04-01T09:05:35.913Z,55
2019-04-01T09:06:35.850Z,55.2
2019-04-01T09:07:35.742Z,55.2
2019-04-01T09:08:35.671Z,55
2019-04-01T09:09:35.563Z,55
2019-04-01T09:10:35.538Z,55.5
2019-04-01T09:11:39.355Z,53.8
2019-04-01T09:12:39.282Z,54.5
2019-04-01T09:13:39.238Z,54.8
2019-04-01T09:14:39.127Z,54.4
2019-04-01T09:15:39.070Z,54.8
2019-04-01T09:16:38.994Z,54.8
2019-04-01T09:17:41.282Z,55
2019-04-01T09:18:41.166Z,54.9
2019-04-01T09:19:41.074Z,54.1
2019-04-01T09:20:41.030Z,53.7
2019-04-01T09:21:41.391Z,53.7
2019-04-01T09:22:41.314Z,54.1
2019-04-01T09:23:41.210Z,54.5
2019-04-01T09:24:41.111Z,53.8
2019-04-01T09:25:41.014Z,53.3
2019-04-01T09:26:40.910Z,54.1
2019-04-01T09:27:40.794Z,54.3
2019-04-01T09:28:40.754Z,53.7
2019-04-01T09:29:40.664Z,53.8
2019-04-01T09:30:40.580Z,53.7
2019-04-01T09:31:40.998Z,54.2
2019-04-01T09:32:40.938Z,53.9
2019-04-01T09:33:40.866Z,52.9
2019-04-01T09:34:40.762Z,53.6
2019-04-01T09:35:41.857Z,53.1
2019-04-01T09:36:41.769Z,54.2
2019-04-01T09:37:41.684Z,54.5
2019-04-01T09:38:41.608Z,53.7
2019-04-01T09:39:41.502Z,53.6
2019-04-01T09:40:41.385Z,54.1
2019-04-01T09:41:43.699Z,54.5
2019-04-01T09:42:43.731Z,54.2
2019-04-01T09:43:43.797Z,54.2
2019-04-01T09:44:43.696Z,53.4
2019-04-01T09:45:43.596Z,53.1
2019-04-01T09:46:43.484Z,53.3
2019-04-01T09:47:43.355Z,53.4
2019-04-01T09:48:43.311Z,52.8
2019-04-01T09:49:43.184Z,53.4
2019-04-01T09:50:43.096Z,53.3
2019-04-01T09:51:49.824Z,53.1
2019-04-01T09:52:49.758Z,52.5
2019-04-01T09:53:49.724Z,53.1
2019-04-01T09:54:49.622Z,54
2019-04-01T09:55:49.539Z,54.2
2019-04-01T09:56:49.412Z,53.6
2019-04-01T09:57:49.328Z,52.6
2019-04-01T09:58:49.225Z,52.9
2019-04-01T09:59:49.139Z,53.8
2019-04-01T10:00:53.834Z,54.9
2019-04-01T10:01:54.170Z,53.7
2019-04-01T10:02:54.053Z,54
2019-04-01T10:03:53.968Z,53.3
2019-04-01T10:04:53.886Z,53.3
2019-04-01T10:05:53.764Z,53.7
2019-04-01T10:06:53.651Z,53.7
2019-04-01T10:07:53.551Z,53.9
2019-04-01T10:08:53.442Z,53.9
2019-04-01T10:09:53.327Z,54.4
2019-04-01T10:10:53.235Z,54.3
2019-04-01T10:11:53.655Z,54.4
2019-04-01T10:12:53.560Z,54.6
2019-04-01T10:13:53.454Z,55
2019-04-01T10:14:53.355Z,56.3
2019-04-01T10:15:53.283Z,56.2
2019-04-01T10:16:53.167Z,55
2019-04-01T10:17:53.061Z,55.1
2019-04-01T10:18:52.980Z,55.6
2019-04-01T10:19:53.051Z,55.7
2019-04-01T10:20:52.955Z,56.2
2019-04-01T10:21:53.400Z,55.8
2019-04-01T10:22:53.287Z,56.1
2019-04-01T10:23:53.213Z,55.6
2019-04-01T10:24:53.144Z,55.9
2019-04-01T10:25:53.048Z,56.3
2019-04-01T10:26:52.974Z,55.7
2019-04-01T10:27:52.859Z,55.3
2019-04-01T10:28:52.865Z,55.3
2019-04-01T10:29:52.787Z,55.6
2019-04-01T10:30:52.690Z,55.7
2019-04-01T10:31:52.992Z,55.5
2019-04-01T10:32:52.951Z,55.3
2019-04-01T10:33:52.847Z,55.2
2019-04-01T10:34:52.833Z,55.7
2019-04-01T10:35:52.769Z,56.1
2019-04-01T10:36:52.679Z,55.6
2019-04-01T10:37:52.589Z,55.5
2019-04-01T10:38:52.494Z,55.4
2019-04-01T10:39:52.401Z,54.9
2019-04-01T10:40:52.458Z,55.2
2019-04-01T10:41:53.037Z,55.5
2019-04-01T10:42:52.929Z,56
2019-04-01T10:43:52.833Z,56.1
2019-04-01T10:44:52.755Z,56
2019-04-01T10:45:52.695Z,55.8
2019-04-01T10:46:52.880Z,55.2
2019-04-01T10:47:53.210Z,55.5
2019-04-01T10:48:53.516Z,54.6
2019-04-01T10:49:53.745Z,55.1
2019-04-01T10:50:53.991Z,55
2019-04-01T10:51:55.188Z,55.1
2019-04-01T10:52:55.577Z,55.3
2019-04-01T10:53:55.810Z,55.7
2019-04-01T10:54:55.988Z,55.3
2019-04-01T10:55:56.264Z,55.1
2019-04-01T10:56:56.340Z,55.4
2019-04-01T10:57:56.653Z,55
2019-04-01T10:58:56.903Z,55
2019-04-01T10:59:56.994Z,55.5
2019-04-01T11:00:57.321Z,55.4
2019-04-01T11:01:58.174Z,55.1
2019-04-01T11:02:58.304Z,55.6
2019-04-01T11:03:58.540Z,55.7
2019-04-01T11:04:58.741Z,54.9
2019-04-01T11:05:59.138Z,54.9
2019-04-01T11:06:59.522Z,54.8
2019-04-01T11:07:59.908Z,56.2
2019-04-01T11:09:00.001Z,56
2019-04-01T11:10:00.451Z,56.3
2019-04-01T11:11:00.384Z,56.7
2019-04-01T11:12:00.822Z,55.9
2019-04-01T11:13:00.778Z,56.2
2019-04-01T11:14:00.675Z,56.8
2019-04-01T11:15:00.897Z,56.6
2019-04-01T11:16:00.787Z,56.7
2019-04-01T11:17:05.228Z,56.9
2019-04-01T11:18:05.199Z,56.6
2019-04-01T11:19:05.108Z,56.2
2019-04-01T11:20:05.012Z,56.3
2019-04-01T11:21:06.035Z,56.5
2019-04-01T11:22:06.387Z,56.5
2019-04-01T11:23:06.315Z,56.5
2019-04-01T11:24:08.438Z,56.6
2019-04-01T11:25:08.438Z,57.2
2019-04-01T11:26:08.376Z,57
2019-04-01T11:27:08.355Z,57.4
2019-04-01T11:28:08.260Z,56.4
2019-04-01T11:29:08.143Z,56.6
2019-04-01T11:30:09.051Z,56.1
2019-04-01T11:31:09.031Z,56.8
2019-04-01T11:32:13.933Z,56.9
2019-04-01T11:33:14.200Z,57.1
2019-04-01T11:34:14.362Z,57.2
2019-04-01T11:35:14.557Z,57.1
2019-04-01T11:36:16.409Z,57.2
2019-04-01T11:37:16.501Z,57.4
2019-04-01T11:38:16.502Z,57.3
2019-04-01T11:39:16.594Z,57.5
2019-04-01T11:40:16.737Z,56.8
2019-04-01T11:41:16.752Z,57
2019-04-01T11:42:17.476Z,57.4
2019-04-01T11:43:17.600Z,57.5
2019-04-01T11:44:17.796Z,57.5
2019-04-01T11:45:17.945Z,57.2
2019-04-01T11:46:18.117Z,57.2
2019-04-01T11:47:22.530Z,56.8
2019-04-01T11:48:22.634Z,57.3
2019-04-01T11:49:22.744Z,57.1
2019-04-01T11:50:22.804Z,57
2019-04-01T11:51:40.639Z,57
2019-04-01T11:52:45.175Z,57.2
2019-04-01T11:53:45.206Z,57.4
2019-04-01T11:54:45.115Z,57.5
2019-04-01T11:55:45.028Z,57.5
2019-04-01T11:56:44.954Z,58
2019-04-01T11:57:44.875Z,58.5
2019-04-01T11:58:44.791Z,58.2
2019-04-01T11:59:44.713Z,58.1
2019-04-01T12:00:44.619Z,58
2019-04-01T12:01:44.549Z,57.6
2019-04-01T12:02:47.169Z,58.1
2019-04-01T12:03:47.067Z,58.1
2019-04-01T12:04:46.965Z,58.1
2019-04-01T12:05:46.869Z,58.1
2019-04-01T12:06:46.837Z,57.9
2019-04-01T12:07:46.837Z,57.7
2019-04-01T12:08:46.788Z,57.6
2019-04-01T12:09:46.707Z,58
2019-04-01T12:10:46.597Z,58.2
2019-04-01T12:11:46.481Z,58.3
2019-04-01T12:12:54.491Z,58.3
2019-04-01T12:13:54.383Z,58.2
2019-04-01T12:14:54.291Z,58.3
2019-04-01T12:15:54.195Z,58.5
2019-04-01T12:16:54.084Z,58.4
2019-04-01T12:17:53.980Z,57.9
2019-04-01T12:18:53.895Z,58.2
2019-04-01T12:19:54.096Z,58.5
2019-04-01T12:20:54.011Z,58.5
2019-04-01T12:21:53.905Z,58.6
2019-04-01T12:22:54.314Z,58.3
2019-04-01T12:23:54.226Z,58.4
2019-04-01T12:24:54.127Z,58.2
2019-04-01T12:25:54.025Z,58.3
2019-04-01T12:26:53.930Z,58.3
2019-04-01T12:27:53.832Z,58.3
2019-04-01T12:28:53.750Z,57.9
2019-04-01T12:29:53.653Z,58
2019-04-01T12:30:53.540Z,58.6
2019-04-01T12:31:53.544Z,58.2
2019-04-01T12:32:53.915Z,58.7
2019-04-01T12:33:53.846Z,58.9
2019-04-01T12:34:53.750Z,58.5
2019-04-01T12:35:53.668Z,58.5
2019-04-01T12:36:53.588Z,58.3
2019-04-01T12:37:53.514Z,58.4
2019-04-01T12:38:54.594Z,58.4
2019-04-01T12:39:54.506Z,58.2
2019-04-01T12:40:54.560Z,58.8
2019-04-01T12:41:54.455Z,58.8
2019-04-01T12:42:55.378Z,58.4
2019-04-01T12:43:55.282Z,59
2019-04-01T12:44:55.210Z,59
2019-04-01T12:45:55.116Z,59
2019-04-01T12:46:55.026Z,58
2019-04-01T12:48:54.669Z,57.9
2019-04-01T12:50:54.331Z,56.6
2019-04-01T12:51:54.259Z,56.6
2019-04-01T12:52:58.615Z,56.5
2019-04-01T12:53:58.538Z,57.6
2019-04-01T12:55:01.722Z,58.2
2019-04-01T12:56:01.832Z,58
2019-04-01T12:57:01.722Z,58
2019-04-01T12:58:01.626Z,58.1
2019-04-01T12:59:01.534Z,57.9
2019-04-01T13:00:01.542Z,57.3
2019-04-01T13:01:02.056Z,57.4
2019-04-01T13:02:01.954Z,57.5
2019-04-01T13:03:02.331Z,57.6
2019-04-01T13:04:05.042Z,57.3
2019-04-01T13:05:04.955Z,57.4
2019-04-01T13:06:04.857Z,57.9
2019-04-01T13:07:06.046Z,57.9
2019-04-01T13:08:06.048Z,57.8
2019-04-01T13:09:05.944Z,57.8
2019-04-01T13:10:05.882Z,57.8
2019-04-01T13:11:05.770Z,57.7
2019-04-01T13:12:05.672Z,57.8
2019-04-01T13:13:06.071Z,58.1
2019-04-01T13:14:05.976Z,58
2019-04-01T13:15:05.881Z,57.7
2019-04-01T13:16:09.813Z,57.5
2019-04-01T13:17:09.742Z,58
2019-04-01T13:18:09.642Z,58.3
2019-04-01T13:19:09.541Z,57.9
2019-04-01T13:20:09.437Z,57.9
2019-04-01T13:21:11.459Z,58.1
2019-04-01T13:22:11.436Z,58.1
2019-04-01T13:23:11.816Z,58.4
2019-04-01T13:24:11.717Z,58.7
2019-04-01T13:25:11.692Z,58.4
2019-04-01T13:26:11.608Z,58.5
2019-04-01T13:27:11.512Z,58.2
2019-04-01T13:28:11.422Z,58.3
2019-04-01T13:29:11.311Z,58.4
2019-04-01T13:30:11.231Z,58.6
2019-04-01T13:31:11.293Z,58.8
2019-04-01T13:32:11.234Z,58.4
2019-04-01T13:33:11.564Z,58.7
2019-04-01T13:34:11.476Z,58.8
2019-04-01T13:35:11.388Z,58.8
2019-04-01T13:36:11.319Z,58.7
2019-04-01T13:37:11.254Z,59.5
2019-04-01T13:38:12.068Z,58.7
2019-04-01T13:39:12.008Z,58.8
2019-04-01T13:40:15.588Z,58.5
2019-04-01T13:41:19.495Z,58.3
2019-04-01T13:42:19.440Z,58.5
2019-04-01T13:43:19.772Z,58.5
2019-04-01T13:44:19.673Z,58.6
2019-04-01T13:45:20.549Z,58.7
2019-04-01T13:46:21.649Z,58.6
2019-04-01T13:47:21.629Z,58.6
2019-04-01T13:48:21.510Z,58.8
2019-04-01T13:49:21.430Z,58.8
2019-04-01T13:50:21.365Z,58.8
2019-04-01T13:51:21.277Z,58.9
2019-04-01T13:52:21.167Z,58.8
2019-04-01T13:53:22.519Z,58.7
2019-04-01T13:54:22.409Z,58.7
2019-04-01T13:55:22.318Z,58.6
2019-04-01T13:56:22.245Z,59.6
2019-04-01T13:57:22.140Z,59.1
2019-04-01T13:58:22.029Z,59.2
2019-04-01T13:59:21.913Z,59.2
2019-04-01T14:00:27.873Z,58.8
2019-04-01T14:01:27.798Z,58.7
2019-04-01T14:02:31.653Z,58.6
2019-04-01T14:03:31.950Z,59.2
2019-04-01T14:04:31.846Z,58.8
2019-04-01T14:05:31.732Z,58.9
2019-04-01T14:06:31.650Z,58.7
2019-04-01T14:07:31.648Z,58.1
2019-04-01T14:08:31.554Z,57.6
2019-04-01T14:09:31.699Z,57.2
2019-04-01T14:10:31.800Z,56.6
2019-04-01T14:12:31.449Z,56.4
2019-04-01T14:13:31.792Z,56.4
2019-04-01T14:14:31.701Z,57.1
2019-04-01T14:15:31.617Z,57
2019-04-01T14:16:31.539Z,57.1
2019-04-01T14:17:31.512Z,57.2
2019-04-01T14:18:31.449Z,57.5
2019-04-01T14:19:31.352Z,57.4
2019-04-01T14:20:31.353Z,57.2
2019-04-01T14:21:31.252Z,57
2019-04-01T14:22:31.150Z,58.1
2019-04-01T14:23:34.373Z,58
2019-04-01T14:24:34.292Z,57.8
2019-04-01T14:25:35.728Z,57.4
2019-04-01T14:26:35.633Z,57.3
2019-04-01T14:27:35.537Z,57.3
2019-04-01T14:28:35.453Z,57.3
2019-04-01T14:29:37.477Z,57.5
2019-04-01T14:30:37.405Z,57.5
2019-04-01T14:31:37.296Z,57.6
2019-04-01T14:32:37.189Z,58
2019-04-01T14:33:37.551Z,58.2
2019-04-01T14:34:37.465Z,58.4
2019-04-01T14:35:37.367Z,58.1
2019-04-01T14:36:38.866Z,57.9
2019-04-01T14:37:40.760Z,57.9
2019-04-01T14:38:40.663Z,58.1
2019-04-01T14:39:40.564Z,58
2019-04-01T14:40:40.494Z,58
2019-04-01T14:41:40.393Z,58.1
2019-04-01T14:42:40.774Z,58.3
2019-04-01T14:43:41.275Z,58.5
2019-04-01T14:44:41.167Z,58.5
2019-04-01T14:45:41.085Z,58.7
2019-04-01T14:46:41.032Z,59.2
2019-04-01T14:47:58.560Z,59.3
2019-04-01T14:49:03.413Z,59.2
2019-04-01T14:50:08.251Z,59.4
2019-04-01T14:51:08.155Z,59.7
2019-04-01T14:52:08.041Z,59.8
2019-04-01T14:53:07.929Z,59.8
2019-04-01T14:54:10.095Z,59.6
2019-04-01T14:55:09.993Z,59.9
2019-04-01T14:56:09.907Z,60.1
2019-04-01T14:57:09.806Z,59.9
2019-04-01T14:58:12.743Z,59.2
2019-04-01T14:59:12.653Z,58.8
2019-04-01T15:03:13.625Z,57.5
2019-04-01T15:04:14.007Z,57.2
2019-04-01T15:06:13.745Z,57.5
2019-04-01T15:07:18.841Z,57.8
2019-04-01T15:08:20.258Z,57.5
2019-04-01T15:10:23.623Z,57.3
2019-04-01T15:11:23.511Z,57.6
2019-04-01T15:12:23.514Z,57.5
2019-04-01T15:13:23.455Z,57.5
2019-04-01T15:14:23.833Z,57.2
2019-04-01T15:15:23.735Z,57.4
2019-04-01T15:16:23.713Z,57.6
2019-04-01T15:17:23.609Z,57.5
2019-04-01T15:18:23.516Z,57.4
2019-04-01T15:19:23.444Z,56.9